createdAt,value
2023-05-15T14:51:40.665Z,17.46
2023-05-15T14:52:40.634Z,17.62
2023-05-15T14:53:40.689Z,17.56
2023-05-15T14:54:40.662Z,17.66
2023-05-15T14:55:40.661Z,17.64
2023-05-15T14:56:40.679Z,17.79
2023-05-15T14:57:40.664Z,17.95
2023-05-15T14:58:40.631Z,18.02
2023-05-15T14:59:40.651Z,17.89
2023-05-15T15:00:40.651Z,18.20
2023-05-15T15:01:40.682Z,18.40
2023-05-15T15:02:40.706Z,17.62
2023-05-15T15:03:40.696Z,17.86
2023-05-15T15:04:40.635Z,17.89
2023-05-15T15:05:40.600Z,17.71
2023-05-15T15:06:40.612Z,17.65
2023-05-15T15:07:40.572Z,17.25
2023-05-15T15:08:40.564Z,17.14
2023-05-15T15:09:40.553Z,17.39
2023-05-15T15:10:40.539Z,16.71
2023-05-15T15:11:40.558Z,16.81
2023-05-15T15:12:40.557Z,16.98
2023-05-15T15:13:40.562Z,17.04
2023-05-15T15:14:40.861Z,16.90
2023-05-15T15:15:40.514Z,17.07
2023-05-15T15:16:40.661Z,17.00
2023-05-15T15:17:40.572Z,17.14
2023-05-15T15:18:40.507Z,17.32
2023-05-15T15:19:40.520Z,17.22
2023-05-15T15:20:40.478Z,17.18
2023-05-15T15:21:40.506Z,16.94
2023-05-15T15:22:40.506Z,17.14
2023-05-15T15:23:40.447Z,17.34
2023-05-15T15:24:40.478Z,16.70
2023-05-15T15:25:40.422Z,17.17
2023-05-15T15:26:40.469Z,17.24
2023-05-15T15:27:40.433Z,17.39
2023-05-15T15:28:40.448Z,17.05
2023-05-15T15:29:40.451Z,17.05
2023-05-15T15:30:40.402Z,16.66
2023-05-15T15:31:40.462Z,16.61
2023-05-15T15:32:40.442Z,16.96
2023-05-15T15:33:40.407Z,16.81
2023-05-15T15:34:40.403Z,16.84
2023-05-15T15:35:40.432Z,16.43
2023-05-15T15:36:40.443Z,16.21
2023-05-15T15:37:40.490Z,16.31
2023-05-15T15:38:40.622Z,16.53
2023-05-15T15:39:40.561Z,16.85
2023-05-15T15:40:40.562Z,16.81
2023-05-15T15:41:40.568Z,17.00
2023-05-15T15:42:40.644Z,16.96
2023-05-15T15:43:40.646Z,16.92
2023-05-15T15:44:40.652Z,16.58
2023-05-15T15:45:40.771Z,16.82
2023-05-15T15:46:40.712Z,16.96
2023-05-15T15:47:40.781Z,16.68
2023-05-15T15:48:40.794Z,16.66
2023-05-15T15:49:40.840Z,16.54
2023-05-15T15:50:40.891Z,16.81
2023-05-15T15:51:40.901Z,16.80
2023-05-15T15:52:40.950Z,16.95
2023-05-15T15:53:40.963Z,16.74
2023-05-15T15:54:41.022Z,16.70
2023-05-15T15:55:41.020Z,16.84
2023-05-15T15:56:41.099Z,16.63
2023-05-15T15:57:41.085Z,16.77
2023-05-15T15:58:41.158Z,16.92
2023-05-15T15:59:42.843Z,17.10
2023-05-15T16:00:41.195Z,17.04
2023-05-15T16:01:41.210Z,16.94
2023-05-15T16:02:41.270Z,17.13
2023-05-15T16:03:41.255Z,17.17
2023-05-15T16:04:41.245Z,17.34
2023-05-15T16:05:41.287Z,17.08
2023-05-15T16:06:41.319Z,16.81
2023-05-15T16:07:41.348Z,17.03
2023-05-15T16:08:41.409Z,17.05
2023-05-15T16:09:41.430Z,17.04
2023-05-15T16:10:41.424Z,17.22
2023-05-15T16:11:41.436Z,17.35
2023-05-15T16:12:41.477Z,17.55
2023-05-15T16:13:41.478Z,17.78
2023-05-15T16:14:41.513Z,17.81
2023-05-15T16:15:41.571Z,17.86
2023-05-15T16:16:41.644Z,17.90
2023-05-15T16:17:41.738Z,17.98
2023-05-15T16:18:41.712Z,18.13
2023-05-15T16:19:41.794Z,18.12
2023-05-15T16:20:41.702Z,18.11
2023-05-15T16:21:41.730Z,17.99
2023-05-15T16:22:41.949Z,18.23
2023-05-15T16:23:41.891Z,18.37
2023-05-15T16:24:41.893Z,18.22
2023-05-15T16:25:41.899Z,17.49
2023-05-15T16:26:41.946Z,17.49
2023-05-15T16:27:41.969Z,17.75
2023-05-15T16:28:42.023Z,17.31
2023-05-15T16:29:42.037Z,17.71
2023-05-15T16:30:49.035Z,17.81
2023-05-15T16:31:43.093Z,17.90
2023-05-15T16:32:42.047Z,18.08
2023-05-15T16:33:42.001Z,18.05
2023-05-15T16:34:42.006Z,17.95
2023-05-15T16:35:42.020Z,18.03
2023-05-15T16:36:42.000Z,18.28
2023-05-15T16:37:42.033Z,18.55
2023-05-15T16:38:42.023Z,18.71
2023-05-15T16:39:42.002Z,18.89
2023-05-15T16:40:41.967Z,19.02
2023-05-15T16:41:41.953Z,19.14
2023-05-15T16:42:41.941Z,19.30
2023-05-15T16:43:41.953Z,19.11
2023-05-15T16:44:41.984Z,18.79
2023-05-15T16:45:41.998Z,18.52
2023-05-15T16:46:42.107Z,18.26
2023-05-15T16:47:42.110Z,18.63
2023-05-15T16:48:42.099Z,18.73
2023-05-15T16:49:44.357Z,18.77
2023-05-15T16:50:42.100Z,18.71
2023-05-15T16:51:42.112Z,18.92
2023-05-15T16:52:42.122Z,19.06
2023-05-15T16:53:42.074Z,19.16
2023-05-15T16:54:42.119Z,19.21
2023-05-15T16:55:42.102Z,19.34
2023-05-15T16:56:42.092Z,19.34
2023-05-15T16:57:42.056Z,19.44
2023-05-15T16:58:42.068Z,19.37
2023-05-15T16:59:42.070Z,18.96
2023-05-15T17:00:42.866Z,18.90
2023-05-15T17:01:42.072Z,18.79
2023-05-15T17:02:42.197Z,18.69
2023-05-15T17:03:42.096Z,18.55
2023-05-15T17:04:42.020Z,18.66
2023-05-15T17:05:42.010Z,18.67
2023-05-15T17:06:41.993Z,18.71
2023-05-15T17:07:41.989Z,18.67
2023-05-15T17:08:42.017Z,18.71
2023-05-15T17:09:42.011Z,18.47
2023-05-15T17:10:41.974Z,18.26
2023-05-15T17:11:41.975Z,18.13
2023-05-15T17:12:41.941Z,18.06
2023-05-15T17:13:41.967Z,18.19
2023-05-15T17:14:41.964Z,18.08
2023-05-15T17:15:41.958Z,18.22
2023-05-15T17:16:42.070Z,18.28
2023-05-15T17:17:41.924Z,18.29
2023-05-15T17:18:41.989Z,18.19
2023-05-15T17:19:41.880Z,18.00
2023-05-15T17:20:41.880Z,17.89
2023-05-15T17:21:41.889Z,18.06
2023-05-15T17:22:41.875Z,17.98
2023-05-15T17:23:41.864Z,18.13
2023-05-15T17:24:50.719Z,18.17
2023-05-15T17:25:42.866Z,18.05
2023-05-15T17:26:41.864Z,18.06
2023-05-15T17:27:41.879Z,18.16
2023-05-15T17:28:41.877Z,18.13
2023-05-15T17:29:41.867Z,18.16
2023-05-15T17:30:41.801Z,18.13
2023-05-15T17:31:41.917Z,17.98
2023-05-15T17:32:41.866Z,17.96
2023-05-15T17:33:41.805Z,18.03
2023-05-15T17:34:41.827Z,18.05
2023-05-15T17:35:41.823Z,18.06
2023-05-15T17:36:41.800Z,18.03
2023-05-15T17:37:41.800Z,18.00
2023-05-15T17:38:41.781Z,18.08
2023-05-15T17:39:41.820Z,18.09
2023-05-15T17:40:41.856Z,18.03
2023-05-15T17:41:41.872Z,18.05
2023-05-15T17:42:41.865Z,17.75
2023-05-15T17:43:41.950Z,17.93
2023-05-15T17:44:41.947Z,17.92
2023-05-15T17:45:41.990Z,17.95
2023-05-15T17:46:41.999Z,17.82
2023-05-15T17:47:42.082Z,17.92
2023-05-15T17:48:42.068Z,17.81
2023-05-15T17:49:42.113Z,17.90
2023-05-15T17:50:42.192Z,17.68
2023-05-15T17:51:42.217Z,17.71
2023-05-15T17:52:42.285Z,17.75
2023-05-15T17:53:42.320Z,17.74
2023-05-15T17:54:42.401Z,17.75
2023-05-15T17:55:42.370Z,17.58
2023-05-15T17:56:42.411Z,17.52
2023-05-15T17:57:42.411Z,17.49
2023-05-15T17:58:42.416Z,17.49
2023-05-15T17:59:42.452Z,17.46
2023-05-15T18:00:42.506Z,17.49
2023-05-15T18:01:43.473Z,17.41
2023-05-15T18:02:42.646Z,17.42
2023-05-15T18:03:42.603Z,17.28
2023-05-15T18:04:42.622Z,17.35
2023-05-15T18:05:42.642Z,17.28
2023-05-15T18:06:42.626Z,17.10
2023-05-15T18:07:42.705Z,17.13
2023-05-15T18:08:42.749Z,16.96
2023-05-15T18:09:42.791Z,17.15
2023-05-15T18:10:42.784Z,16.94
2023-05-15T18:11:42.841Z,16.72
2023-05-15T18:12:42.878Z,16.95
2023-05-15T18:13:42.906Z,16.72
2023-05-15T18:14:42.962Z,16.84
2023-05-15T18:15:43.050Z,16.96
2023-05-15T18:16:43.082Z,17.00
2023-05-15T18:17:43.172Z,16.81
2023-05-15T18:18:43.133Z,16.91
2023-05-15T18:19:43.202Z,16.98
2023-05-15T18:20:43.231Z,17.05
2023-05-15T18:21:43.230Z,17.04
2023-05-15T18:22:43.263Z,17.11
2023-05-15T18:23:43.273Z,17.11
2023-05-15T18:24:43.293Z,17.13
2023-05-15T18:25:43.336Z,17.14
2023-05-15T18:26:43.363Z,17.15
2023-05-15T18:27:43.375Z,17.15
2023-05-15T18:28:43.398Z,17.14
2023-05-15T18:29:45.484Z,17.14
2023-05-15T18:30:43.430Z,17.13
2023-05-15T18:31:43.553Z,17.14
2023-05-15T18:32:43.461Z,17.11
2023-05-15T18:33:43.478Z,17.03
2023-05-15T18:34:43.502Z,16.95
2023-05-15T18:35:43.546Z,16.84
2023-05-15T18:36:43.554Z,16.78
2023-05-15T18:37:43.554Z,16.74
2023-05-15T18:38:43.578Z,16.71
2023-05-15T18:39:43.631Z,16.72
2023-05-15T18:40:43.647Z,16.68
2023-05-15T18:41:43.715Z,16.67
2023-05-15T18:42:43.779Z,16.70
2023-05-15T18:43:43.811Z,16.64
2023-05-15T18:44:43.804Z,16.61
2023-05-15T18:45:43.816Z,16.60
2023-05-15T18:46:43.850Z,16.63
2023-05-15T18:47:43.945Z,16.60
2023-05-15T18:48:43.953Z,16.58
2023-05-15T18:49:43.967Z,16.63
2023-05-15T18:50:44.046Z,16.44
2023-05-15T18:51:44.076Z,16.40
2023-05-15T18:52:44.128Z,16.44
2023-05-15T18:53:44.166Z,16.43
2023-05-15T18:54:44.229Z,16.43
2023-05-15T18:55:44.249Z,16.37
2023-05-15T18:56:44.293Z,16.39
2023-05-15T18:57:44.344Z,16.33
2023-05-15T18:58:44.369Z,16.36
2023-05-15T18:59:44.416Z,16.34
2023-05-15T19:00:44.416Z,16.31
2023-05-15T19:01:44.527Z,16.13
2023-05-15T19:02:44.479Z,16.13
2023-05-15T19:03:44.465Z,15.85
2023-05-15T19:04:44.445Z,15.99
2023-05-15T19:05:44.495Z,16.01
2023-05-15T19:06:44.540Z,15.86
2023-05-15T19:07:44.557Z,15.67
2023-05-15T19:08:44.573Z,15.62
2023-05-15T19:09:44.621Z,15.62
2023-05-15T19:10:44.689Z,15.59
2023-05-15T19:11:44.682Z,15.63
2023-05-15T19:12:44.754Z,15.73
2023-05-15T19:13:44.761Z,15.77
2023-05-15T19:14:44.769Z,15.83
2023-05-15T19:15:44.793Z,15.76
2023-05-15T19:16:44.825Z,15.69
2023-05-15T19:17:44.881Z,15.73
2023-05-15T19:18:44.941Z,15.60
2023-05-15T19:19:44.914Z,15.60
2023-05-15T19:20:44.911Z,15.65
2023-05-15T19:21:44.945Z,15.56
2023-05-15T19:22:44.904Z,15.60
2023-05-15T19:23:45.010Z,15.49
2023-05-15T19:24:44.942Z,15.53
2023-05-15T19:25:45.098Z,15.60
2023-05-15T19:26:45.000Z,15.54
2023-05-15T19:27:45.057Z,15.56
2023-05-15T19:28:45.120Z,15.62
2023-05-15T19:29:45.153Z,15.66
2023-05-15T19:30:45.195Z,15.66
2023-05-15T19:31:45.238Z,15.66
2023-05-15T19:32:45.265Z,15.70
2023-05-15T19:33:45.249Z,15.72
2023-05-15T19:34:45.251Z,15.76
2023-05-15T19:35:45.286Z,15.72
2023-05-15T19:36:45.332Z,15.72
2023-05-15T19:37:45.384Z,15.72
2023-05-15T19:38:45.396Z,15.77
2023-05-15T19:39:45.880Z,15.76
2023-05-15T19:40:45.476Z,15.79
2023-05-15T19:41:45.476Z,15.76
2023-05-15T19:42:45.533Z,15.76
2023-05-15T19:43:45.514Z,15.80
2023-05-15T19:44:45.545Z,15.80
2023-05-15T19:45:45.622Z,15.77
2023-05-15T19:46:45.729Z,15.74
2023-05-15T19:47:45.676Z,15.74
2023-05-15T19:48:45.726Z,15.67
2023-05-15T19:49:45.739Z,15.65
2023-05-15T19:50:45.820Z,15.56
2023-05-15T19:51:45.795Z,15.52
2023-05-15T19:52:45.834Z,15.49
2023-05-15T19:53:45.848Z,15.52
2023-05-15T19:54:45.877Z,15.54
2023-05-15T19:55:45.928Z,15.57
2023-05-15T19:56:45.971Z,15.45
2023-05-15T19:57:45.982Z,15.43
2023-05-15T19:58:46.016Z,15.36
2023-05-15T19:59:46.066Z,15.28
2023-05-15T20:00:46.133Z,15.29
2023-05-15T20:01:46.208Z,15.23
2023-05-15T20:02:46.242Z,15.28
2023-05-15T20:03:46.336Z,15.33
2023-05-15T20:04:46.234Z,15.29
2023-05-15T20:05:46.273Z,15.28
2023-05-15T20:06:46.318Z,15.18
2023-05-15T20:07:46.347Z,15.26
2023-05-15T20:08:46.347Z,15.26
2023-05-15T20:09:46.360Z,15.26
2023-05-15T20:10:46.392Z,15.29
2023-05-15T20:11:46.411Z,15.15
2023-05-15T20:12:46.433Z,15.22
2023-05-15T20:13:46.432Z,15.26
2023-05-15T20:14:46.507Z,15.33
2023-05-15T20:15:46.558Z,15.38
2023-05-15T20:16:46.646Z,15.29
2023-05-15T20:17:46.603Z,15.28
2023-05-15T20:18:46.621Z,15.06
2023-05-15T20:19:46.670Z,15.00
2023-05-15T20:20:46.686Z,14.92
2023-05-15T20:21:46.713Z,14.92
2023-05-15T20:22:46.774Z,14.88
2023-05-15T20:23:46.761Z,14.95
2023-05-15T20:24:46.806Z,14.99
2023-05-15T20:25:46.833Z,15.03
2023-05-15T20:26:46.885Z,15.10
2023-05-15T20:27:46.941Z,15.09
2023-05-15T20:28:47.009Z,15.10
2023-05-15T20:29:46.993Z,15.09
2023-05-15T20:30:47.092Z,15.13
2023-05-15T20:31:47.236Z,15.16
2023-05-15T20:32:47.242Z,15.18
2023-05-15T20:33:47.150Z,15.06
2023-05-15T20:34:47.247Z,15.10
2023-05-15T20:35:47.277Z,15.18
2023-05-15T20:36:47.284Z,15.19
2023-05-15T20:37:47.300Z,15.25
2023-05-15T20:38:47.311Z,15.19
2023-05-15T20:39:47.328Z,15.25
2023-05-15T20:40:47.305Z,15.28
2023-05-15T20:41:47.407Z,15.15
2023-05-15T20:42:47.483Z,15.10
2023-05-15T20:43:47.514Z,15.18
2023-05-15T20:44:47.527Z,15.29
2023-05-15T20:45:47.609Z,15.33
2023-05-15T20:46:47.655Z,15.35
2023-05-15T20:47:47.722Z,15.40
2023-05-15T20:48:47.725Z,15.45
2023-05-15T20:49:47.751Z,15.36
2023-05-15T20:50:47.893Z,15.43
2023-05-15T20:51:47.884Z,15.46
2023-05-15T20:52:47.948Z,15.49
2023-05-15T20:53:47.977Z,15.49
2023-05-15T20:54:48.038Z,15.49
2023-05-15T20:55:48.094Z,15.53
2023-05-15T20:56:48.137Z,15.53
2023-05-15T20:57:48.198Z,15.57
2023-05-15T20:58:48.237Z,15.56
2023-05-15T20:59:48.251Z,15.53
2023-05-15T21:00:48.365Z,15.49
2023-05-15T21:01:48.426Z,15.43
2023-05-15T21:02:48.387Z,15.29
2023-05-15T21:03:48.414Z,15.22
2023-05-15T21:04:48.407Z,15.19
2023-05-15T21:05:48.493Z,15.21
2023-05-15T21:06:48.456Z,15.10
2023-05-15T21:07:48.505Z,15.18
2023-05-15T21:08:48.521Z,15.15
2023-05-15T21:09:48.957Z,15.13
2023-05-15T21:10:48.595Z,15.23
2023-05-15T21:11:48.636Z,15.23
2023-05-15T21:12:48.708Z,15.16
2023-05-15T21:13:48.683Z,15.19
2023-05-15T21:14:48.794Z,15.23
2023-05-15T21:15:48.733Z,15.26
2023-05-15T21:16:48.780Z,15.29
2023-05-15T21:17:48.832Z,15.29
2023-05-15T21:18:48.893Z,15.28
2023-05-15T21:19:48.866Z,15.26
2023-05-15T21:20:48.874Z,15.28
2023-05-15T21:21:48.876Z,15.28
2023-05-15T21:22:48.859Z,15.30
2023-05-15T21:23:48.891Z,15.33
2023-05-15T21:24:48.877Z,15.36
2023-05-15T21:25:48.932Z,15.39
2023-05-15T21:26:49.008Z,15.38
2023-05-15T21:27:49.013Z,15.43
2023-05-15T21:28:49.068Z,15.45
2023-05-15T21:29:49.101Z,15.45
2023-05-15T21:30:49.172Z,15.46
2023-05-15T21:31:49.198Z,15.43
2023-05-15T21:32:49.217Z,15.45
2023-05-15T21:33:49.222Z,15.45
2023-05-15T21:34:49.289Z,15.47
2023-05-15T21:35:49.330Z,15.49
2023-05-15T21:36:49.371Z,15.52
2023-05-15T21:37:49.419Z,15.47
2023-05-15T21:38:49.434Z,15.52
2023-05-15T21:39:49.479Z,15.46
2023-05-15T21:40:49.521Z,15.52
2023-05-15T21:41:49.548Z,15.49
2023-05-15T21:42:49.635Z,15.52
2023-05-15T21:43:49.639Z,15.50
2023-05-15T21:44:49.689Z,15.50
2023-05-15T21:45:49.772Z,15.49
2023-05-15T21:46:49.855Z,15.53
2023-05-15T21:47:49.834Z,15.53
2023-05-15T21:48:49.788Z,15.49
2023-05-15T21:49:49.822Z,15.52
2023-05-15T21:50:49.830Z,15.47
2023-05-15T21:51:49.870Z,15.47
2023-05-15T21:52:49.895Z,15.49
2023-05-15T21:53:49.886Z,15.29
2023-05-15T21:54:49.951Z,15.10
2023-05-15T21:55:49.973Z,15.22
2023-05-15T21:56:49.965Z,15.10
2023-05-15T21:57:50.042Z,14.91
2023-05-15T21:58:50.031Z,14.82
2023-05-15T21:59:50.021Z,14.68
2023-05-15T22:00:50.126Z,14.86
2023-05-15T22:01:50.215Z,14.74
2023-05-15T22:02:50.309Z,14.42
2023-05-15T22:03:50.436Z,14.35
2023-05-15T22:04:50.297Z,14.10
2023-05-15T22:05:50.295Z,14.15
2023-05-15T22:06:50.289Z,13.97
2023-05-15T22:07:50.359Z,14.17
2023-05-15T22:08:50.347Z,14.18
2023-05-15T22:09:50.386Z,14.18
2023-05-15T22:10:50.431Z,14.22
2023-05-15T22:11:50.452Z,14.29
2023-05-15T22:12:50.513Z,14.48
2023-05-15T22:13:50.519Z,14.57
2023-05-15T22:14:58.387Z,14.58
2023-05-15T22:15:51.566Z,14.53
2023-05-15T22:16:50.728Z,14.65
2023-05-15T22:17:50.564Z,14.74
2023-05-15T22:18:50.575Z,14.78
2023-05-15T22:19:50.512Z,14.81
2023-05-15T22:20:50.552Z,14.83
2023-05-15T22:21:50.495Z,14.91
2023-05-15T22:22:50.489Z,14.96
2023-05-15T22:23:50.507Z,15.00
2023-05-15T22:24:50.464Z,15.08
2023-05-15T22:25:50.519Z,15.09
2023-05-15T22:26:50.510Z,15.15
2023-05-15T22:27:50.557Z,15.16
2023-05-15T22:28:50.598Z,15.21
2023-05-15T22:29:50.573Z,15.23
2023-05-15T22:30:50.676Z,15.15
2023-05-15T22:31:50.712Z,15.23
2023-05-15T22:32:50.791Z,15.23
2023-05-15T22:33:50.781Z,15.28
2023-05-15T22:34:50.776Z,15.30
2023-05-15T22:35:50.825Z,15.30
2023-05-15T22:36:50.812Z,15.33
2023-05-15T22:37:50.814Z,15.38
2023-05-15T22:38:50.896Z,15.33
2023-05-15T22:39:50.880Z,15.39
2023-05-15T22:40:50.905Z,15.40
2023-05-15T22:41:50.909Z,15.40
2023-05-15T22:42:50.999Z,15.45
2023-05-15T22:43:50.966Z,15.42
2023-05-15T22:44:50.992Z,15.32
2023-05-15T22:45:51.024Z,15.38
2023-05-15T22:46:51.043Z,15.39
2023-05-15T22:47:51.162Z,15.35
2023-05-15T22:48:51.108Z,15.39
2023-05-15T22:49:51.187Z,15.40
2023-05-15T22:50:51.221Z,15.42
2023-05-15T22:51:51.291Z,15.35
2023-05-15T22:52:51.337Z,15.36
2023-05-15T22:53:51.396Z,15.35
2023-05-15T22:54:51.436Z,15.35
2023-05-15T22:55:51.458Z,15.29
2023-05-15T22:56:51.517Z,15.29
2023-05-15T22:57:51.514Z,15.25
2023-05-15T22:58:51.548Z,15.19
2023-05-15T22:59:51.591Z,15.16
2023-05-15T23:00:51.652Z,15.10
2023-05-15T23:01:51.712Z,14.78
2023-05-15T23:02:51.762Z,14.92
2023-05-15T23:03:51.869Z,14.71
2023-05-15T23:04:51.815Z,14.81
2023-05-15T23:05:51.859Z,14.82
2023-05-15T23:06:51.902Z,14.86
2023-05-15T23:07:51.922Z,14.91
2023-05-15T23:08:51.965Z,14.92
2023-05-15T23:09:52.035Z,14.95
2023-05-15T23:10:52.048Z,14.96
2023-05-15T23:11:52.072Z,14.96
2023-05-15T23:12:52.085Z,14.95
2023-05-15T23:13:52.992Z,14.94
2023-05-15T23:14:52.124Z,14.98
2023-05-15T23:15:52.185Z,14.94
2023-05-15T23:16:52.201Z,14.98
2023-05-15T23:17:52.209Z,14.98
2023-05-15T23:18:52.251Z,14.99
2023-05-15T23:19:52.257Z,15.00
2023-05-15T23:20:52.252Z,14.92
2023-05-15T23:21:52.296Z,14.94
2023-05-15T23:22:52.290Z,14.99
2023-05-15T23:23:52.332Z,15.02
2023-05-15T23:24:52.337Z,15.05
2023-05-15T23:25:52.421Z,14.99
2023-05-15T23:26:52.392Z,14.79
2023-05-15T23:27:52.451Z,14.88
2023-05-15T23:28:52.453Z,14.89
2023-05-15T23:29:52.476Z,14.53
2023-05-15T23:30:52.585Z,14.69
2023-05-15T23:31:52.959Z,14.78
2023-05-15T23:32:52.721Z,14.53
2023-05-15T23:33:52.675Z,14.64
2023-05-15T23:34:52.706Z,14.57
2023-05-15T23:35:52.763Z,14.67
2023-05-15T23:36:52.831Z,14.68
2023-05-15T23:37:52.898Z,14.72
2023-05-15T23:38:52.868Z,14.75
2023-05-15T23:39:52.918Z,14.81
2023-05-15T23:40:52.994Z,14.82
2023-05-15T23:41:53.018Z,14.88
2023-05-15T23:42:53.057Z,14.82
2023-05-15T23:43:53.038Z,14.18
2023-05-15T23:44:53.058Z,14.21
2023-05-15T23:45:53.138Z,14.28
2023-05-15T23:46:53.196Z,14.32
2023-05-15T23:47:53.217Z,14.35
2023-05-15T23:48:53.208Z,14.34
2023-05-15T23:49:53.268Z,14.38
2023-05-15T23:50:53.306Z,14.47
2023-05-15T23:51:53.237Z,14.48
2023-05-15T23:52:53.325Z,14.31
2023-05-15T23:53:53.349Z,13.71
2023-05-15T23:54:53.354Z,13.84
2023-05-15T23:55:53.360Z,13.91
2023-05-15T23:56:53.424Z,13.97
2023-05-15T23:57:53.467Z,14.05
2023-05-15T23:58:53.497Z,14.05
2023-05-15T23:59:53.512Z,14.14
